Time;durP1;ratioP1;P1;durP2;ratioP2;P2;SDS_P1;SDS_P2;PMS_P1;PMS_P2;Temp;Humidity;BMP_temperature;BMP_pressure;BME280_temperature;BME280_humidity;BME280_pressure;Samples;Min_cycle;Max_cycle;Signal;HPM_P1;HPM_P2
2022/03/03 00:01:48;;;;;;;195.07;160.15;;;;;;;14.44;26.16;93796.63;5116895;27;20447;-62
2022/03/03 00:04:13;;;;;;;194.70;158.00;;;;;;;14.43;26.02;93800.50;5109750;27;20035;-61
2022/03/03 00:06:39;;;;;;;189.85;155.57;;;;;;;14.44;25.93;93802.78;5109205;27;20044;-61
2022/03/03 00:09:05;;;;;;;192.27;157.98;;;;;;;14.42;26.18;93796.31;5115798;27;20073;-62
2022/03/03 00:11:31;;;;;;;190.70;155.60;;;;;;;14.42;25.98;93793.63;5110301;27;20059;-61
2022/03/03 00:13:57;;;;;;;200.48;161.93;;;;;;;14.44;26.14;93793.94;5118406;27;20710;-61
2022/03/03 00:16:26;;;;;;;199.93;161.15;;;;;;;14.43;26.02;93795.13;5108775;27;20104;-61
2022/03/03 00:18:52;;;;;;;188.85;154.13;;;;;;;14.43;26.02;93798.56;5114070;27;20463;-62
2022/03/03 00:21:18;;;;;;;192.15;157.77;;;;;;;14.45;26.01;93790.06;5072591;27;20093;-62
2022/03/03 00:23:44;;;;;;;200.57;162.30;;;;;;;14.44;26.15;93796.63;5109938;27;20045;-62
2022/03/03 00:26:10;;;;;;;187.40;151.57;;;;;;;14.43;25.95;93787.81;5092478;28;20047;-62
2022/03/03 00:28:36;;;;;;;188.38;151.70;;;;;;;14.42;26.10;93780.19;5114360;27;20050;-62
2022/03/03 00:31:02;;;;;;;187.13;153.40;;;;;;;14.44;26.10;93789.31;5109380;27;20051;-62
2022/03/03 00:33:28;;;;;;;190.73;155.18;;;;;;;14.45;26.13;93790.81;5107399;27;20452;-62
2022/03/03 00:35:54;;;;;;;198.07;160.82;;;;;;;14.44;26.19;93796.63;5110502;27;20045;-60
2022/03/03 00:38:19;;;;;;;191.05;156.43;;;;;;;14.44;25.83;93796.63;5115025;27;20039;-60
2022/03/03 00:40:45;;;;;;;189.80;154.48;;;;;;;14.42;25.90;93791.69;5109343;27;20063;-62
2022/03/03 00:43:12;;;;;;;190.13;154.15;;;;;;;14.41;26.05;93789.41;5073309;27;20062;-62
2022/03/03 00:45:38;;;;;;;189.00;153.73;;;;;;;14.43;25.91;93793.19;5110082;27;20415;-61
2022/03/03 00:48:05;;;;;;;200.85;163.40;;;;;;;14.43;25.51;93798.56;5112022;27;20039;-60
2022/03/03 00:50:31;;;;;;;186.80;151.10;;;;;;;14.43;26.19;93795.13;5111205;27;20471;-62
2022/03/03 00:52:57;;;;;;;195.70;158.90;;;;;;;14.43;25.88;93789.75;5113965;27;20043;-62
2022/03/03 00:55:22;;;;;;;190.60;154.43;;;;;;;14.42;26.16;93790.94;5112476;27;20054;-61
2022/03/03 00:57:48;;;;;;;187.25;150.98;;;;;;;14.41;26.18;93787.50;5118262;27;20054;-61
2022/03/03 01:00:15;;;;;;;190.23;153.43;;;;;;;14.43;25.96;93795.88;5109979;27;20047;-61
2022/03/03 01:02:41;;;;;;;187.68;154.07;;;;;;;14.40;25.87;93785.22;5107800;27;20039;-62
2022/03/03 01:05:07;;;;;;;187.25;153.13;;;;;;;14.41;25.95;93782.13;5115495;28;20463;-61
2022/03/03 01:07:33;;;;;;;204.25;164.65;;;;;;;14.39;25.83;93783.72;5110692;28;20123;-61
2022/03/03 01:09:58;;;;;;;184.82;149.20;;;;;;;14.38;25.93;93780.28;5107520;28;20147;-61
2022/03/03 01:12:24;;;;;;;186.40;150.60;;;;;;;14.37;26.51;93769.94;5109364;28;20039;-62
2022/03/03 01:14:50;;;;;;;186.60;150.07;;;;;;;14.37;26.00;93761.88;5107926;28;20442;-61
2022/03/03 01:17:16;;;;;;;190.48;154.85;;;;;;;14.40;26.29;93777.16;5120725;27;20043;-61
2022/03/03 01:19:42;;;;;;;189.55;153.75;;;;;;;14.40;25.91;93779.84;5111049;27;20062;-61
2022/03/03 01:22:08;;;;;;;205.80;167.32;;;;;;;14.39;25.85;93781.78;5107741;27;20110;-61
2022/03/03 01:24:33;;;;;;;185.77;149.70;;;;;;;14.38;26.28;93774.88;5117369;27;20042;-62
2022/03/03 01:26:59;;;;;;;188.25;153.90;;;;;;;14.37;25.93;93773.38;5115833;27;20035;-61
2022/03/03 01:29:24;;;;;;;197.68;160.00;;;;;;;14.39;26.08;93772.94;5097121;27;20044;-62
2022/03/03 01:31:50;;;;;;;196.88;159.55;;;;;;;14.35;25.89;93769.63;5115742;27;20047;-62
2022/03/03 01:34:16;;;;;;;189.15;154.07;;;;;;;14.36;26.04;93771.88;5115844;27;20539;-61
2022/03/03 01:36:43;;;;;;;188.07;152.10;;;;;;;14.35;26.00;93769.63;5117009;27;20100;-61
2022/03/03 01:39:09;;;;;;;188.02;152.48;;;;;;;14.34;26.21;93766.19;5114105;27;20036;-62
2022/03/03 01:41:35;;;;;;;187.27;152.90;;;;;;;14.36;26.03;93766.50;5098475;27;20585;-61
2022/03/03 01:44:02;;;;;;;186.65;153.05;;;;;;;14.36;25.90;93766.50;5115465;27;20114;-61
2022/03/03 01:46:27;;;;;;;194.07;157.85;;;;;;;14.34;26.20;93760.06;5113501;27;20048;-61
2022/03/03 01:48:53;;;;;;;201.45;162.90;;;;;;;14.35;26.22;93762.31;5115330;27;20039;-62
2022/03/03 01:51:19;;;;;;;198.73;160.77;;;;;;;14.34;26.08;93751.97;5103762;27;20043;-61
2022/03/03 01:53:44;;;;;;;186.65;151.50;;;;;;;14.35;26.11;93761.56;5109042;27;20126;-61
2022/03/03 01:56:11;;;;;;;190.65;153.35;;;;;;;14.35;25.93;93767.69;5115919;27;20035;-62
2022/03/03 01:58:37;;;;;;;189.18;153.50;;;;;;;14.34;25.98;93763.50;5114035;27;20039;-62
2022/03/03 02:01:03;;;;;;;185.88;151.52;;;;;;;14.34;25.79;93752.72;5116763;27;20054;-61
2022/03/03 02:03:29;;;;;;;184.63;148.98;;;;;;;14.36;26.07;93757.69;5115099;27;20119;-61
2022/03/03 02:05:55;;;;;;;187.82;152.20;;;;;;;14.35;26.06;93751.53;5093410;28;20148;-62
2022/03/03 02:08:22;;;;;;;192.40;155.75;;;;;;;14.33;26.12;93743.16;5120007;27;20482;-62
2022/03/03 02:10:48;;;;;;;188.38;152.85;;;;;;;14.36;26.19;93753.06;5111558;27;20045;-60
2022/03/03 02:13:14;;;;;;;189.55;153.18;;;;;;;14.32;26.06;93744.34;5097226;27;20039;-60
2022/03/03 02:15:50;;;;;;;187.00;151.65;;;;;;;14.36;26.12;93746.91;5116752;27;20039;-61
2022/03/03 02:18:16;;;;;;;192.15;154.75;;;;;;;14.34;25.99;93746.59;5092376;27;20039;-61
2022/03/03 02:20:41;;;;;;;187.70;152.90;;;;;;;14.33;25.91;93745.84;5119087;27;20473;-62
2022/03/03 02:23:07;;;;;;;184.52;150.40;;;;;;;14.33;25.92;93745.09;5109716;27;20036;-61
2022/03/03 02:25:32;;;;;;;199.10;160.45;;;;;;;14.33;25.84;93740.47;5116651;27;20070;-62
2022/03/03 02:27:58;;;;;;;182.05;148.30;;;;;;;14.31;25.85;93742.84;5092103;28;20055;-61
2022/03/03 02:30:23;;;;;;;190.02;153.98;;;;;;;14.33;26.12;93742.41;5096796;27;20491;-62
2022/03/03 02:32:49;;;;;;;192.45;154.15;;;;;;;14.32;26.03;93743.59;5078824;27;20341;-62
2022/03/03 02:35:15;;;;;;;199.18;160.10;;;;;;;14.33;26.16;93743.16;5116029;27;20035;-61
2022/03/03 02:37:43;;;;;;;187.45;153.13;;;;;;;14.33;26.25;93739.72;5112425;27;20040;-62
2022/03/03 02:40:11;;;;;;;185.07;149.73;;;;;;;14.32;26.12;93738.22;5107773;27;20399;-60
2022/03/03 02:42:37;;;;;;;185.55;148.75;;;;;;;14.31;26.02;93742.09;5109575;27;20699;-61
2022/03/03 02:45:04;;;;;;;191.38;154.15;;;;;;;14.32;26.08;93740.91;5111481;27;20046;-61
2022/03/03 02:47:31;;;;;;;186.50;148.65;;;;;;;14.31;26.13;93737.47;5113986;27;20042;-61
2022/03/03 02:49:56;;;;;;;188.50;152.50;;;;;;;14.29;25.88;93728.34;5119318;27;20426;-62
2022/03/03 02:52:22;;;;;;;181.30;145.80;;;;;;;14.29;26.25;93731.03;5111405;27;20217;-61
2022/03/03 02:54:47;;;;;;;185.55;149.13;;;;;;;14.30;25.96;93729.84;5113611;27;20055;-60
2022/03/03 02:59:58;;;;;;;187.05;149.82;;;;;;;14.28;26.18;93722.22;5100608;27;20054;-62
2022/03/03 03:02:23;;;;;;;199.50;159.25;;;;;;;14.31;25.88;93723.25;5114899;27;20436;-61
2022/03/03 03:04:49;;;;;;;179.52;144.93;;;;;;;14.30;26.05;93722.50;5113024;27;20035;-60
2022/03/03 03:07:15;;;;;;;192.35;155.25;;;;;;;14.31;25.93;93715.19;5098977;27;20104;-61
2022/03/03 03:09:40;;;;;;;190.65;154.90;;;;;;;14.28;26.08;93719.53;5110796;27;20047;-59
2022/03/03 03:12:06;;;;;;;200.63;162.45;;;;;;;14.31;26.02;93721.31;5112896;27;20043;-60
2022/03/03 03:14:32;;;;;;;188.20;152.82;;;;;;;14.31;25.79;93717.88;5113168;27;20414;-60
2022/03/03 03:16:57;;;;;;;204.35;162.63;;;;;;;14.30;26.11;93719.81;5107439;27;20035;-61
2022/03/03 03:19:23;;;;;;;189.38;152.98;;;;;;;14.30;25.98;93713.72;5111993;27;20039;-62
2022/03/03 03:21:48;;;;;;;187.60;152.73;;;;;;;14.31;25.97;93712.50;5092115;27;20046;-62
2022/03/03 03:24:14;;;;;;;190.05;152.20;;;;;;;14.31;26.02;93715.94;5112678;27;20070;-62
2022/03/03 03:26:40;;;;;;;193.15;155.80;;;;;;;14.31;25.99;93713.25;5111231;27;20035;-62
2022/03/03 03:29:06;;;;;;;189.18;152.55;;;;;;;14.31;25.97;93710.56;5115530;27;20047;-63
2022/03/03 03:31:32;;;;;;;197.90;159.77;;;;;;;14.31;26.06;93709.81;5112660;27;20040;-62
2022/03/03 03:33:57;;;;;;;184.73;149.35;;;;;;;14.33;25.70;93700.13;5107618;27;20888;-62
2022/03/03 03:36:23;;;;;;;186.98;149.63;;;;;;;14.32;26.10;93692.50;5111222;27;20058;-62
2022/03/03 03:38:49;;;;;;;184.90;148.82;;;;;;;14.30;25.98;93697.59;5111052;27;20043;-62
2022/03/03 03:41:14;;;;;;;188.23;149.98;;;;;;;14.31;25.92;93705.19;5109605;27;20043;-62
2022/03/03 03:43:40;;;;;;;199.02;160.40;;;;;;;14.28;25.72;93708.03;5109652;27;20345;-63
2022/03/03 03:46:05;;;;;;;188.15;151.07;;;;;;;14.31;25.91;93715.19;5095545;28;20118;-61
2022/03/03 03:48:31;;;;;;;185.48;148.95;;;;;;;14.28;25.92;93705.34;5109570;27;20039;-61
2022/03/03 03:50:57;;;;;;;187.10;150.02;;;;;;;14.31;26.11;93709.81;5109500;27;20043;-63
2022/03/03 03:53:23;;;;;;;185.82;148.38;;;;;;;14.31;26.00;93713.25;5091505;27;20472;-62
2022/03/03 03:55:50;;;;;;;186.38;149.13;;;;;;;14.30;25.93;93701.00;5113402;27;20103;-62
2022/03/03 03:58:16;;;;;;;194.93;156.80;;;;;;;14.30;26.02;93711.75;5114852;27;20097;-62
2022/03/03 04:00:42;;;;;;;214.50;170.68;;;;;;;14.27;25.99;93696.50;5108620;27;20876;-62
2022/03/03 04:03:07;;;;;;;188.18;151.40;;;;;;;14.28;25.89;93700.72;5113762;27;20068;-63
2022/03/03 04:05:33;;;;;;;184.23;148.20;;;;;;;14.30;25.99;93711.75;5101614;27;20460;-62
2022/03/03 04:07:58;;;;;;;187.18;151.55;;;;;;;14.29;26.12;93712.22;5112454;27;20411;-62
2022/03/03 04:10:24;;;;;;;187.48;151.82;;;;;;;14.28;25.73;93713.41;5092903;27;20047;-61
2022/03/03 04:12:50;;;;;;;184.40;147.48;;;;;;;14.27;25.80;93704.59;5109981;27;20043;-62
2022/03/03 04:15:15;;;;;;;189.82;152.63;;;;;;;14.26;25.79;93705.78;5109179;27;20042;-63
2022/03/03 04:17:41;;;;;;;186.10;149.88;;;;;;;14.28;25.95;93700.72;5112832;27;20069;-62
2022/03/03 04:20:08;;;;;;;190.10;153.13;;;;;;;14.27;25.90;93701.13;5115376;27;20039;-62
2022/03/03 04:22:34;;;;;;;183.57;148.75;;;;;;;14.28;26.12;93700.72;5105100;27;20459;-62
2022/03/03 04:25:00;;;;;;;192.27;154.02;;;;;;;14.28;26.05;93698.00;5108969;27;20040;-63
2022/03/03 04:27:26;;;;;;;192.20;152.02;;;;;;;14.29;26.01;93698.78;5118467;27;20040;-62
2022/03/03 04:29:52;;;;;;;188.18;149.32;;;;;;;14.29;25.96;93683.38;5111841;27;20040;-62
2022/03/03 04:32:18;;;;;;;194.65;155.80;;;;;;;14.26;25.88;93678.13;5097741;27;20119;-62
2022/03/03 04:34:43;;;;;;;190.15;150.93;;;;;;;14.28;25.95;93671.13;5093015;27;20111;-62
2022/03/03 04:37:09;;;;;;;200.13;160.98;;;;;;;14.25;26.04;93669.31;5096191;27;20114;-61
2022/03/03 04:39:35;;;;;;;186.43;150.43;;;;;;;14.25;26.09;93661.22;5112915;27;20118;-62
2022/03/03 04:42:00;;;;;;;191.38;151.70;;;;;;;14.26;26.02;93651.22;5107224;27;20074;-62
2022/03/03 04:44:26;;;;;;;184.98;148.85;;;;;;;14.26;26.22;93654.66;5096578;28;20067;-62
2022/03/03 04:46:52;;;;;;;186.85;149.57;;;;;;;14.28;26.07;93659.59;5096194;28;20035;-62
2022/03/03 04:49:18;;;;;;;195.60;156.93;;;;;;;14.26;26.25;93660.03;5074860;27;20490;-62
2022/03/03 04:51:44;;;;;;;184.85;148.32;;;;;;;14.30;26.14;93657.22;5117097;27;20043;-61
2022/03/03 04:54:10;;;;;;;198.05;159.02;;;;;;;14.27;26.01;93652.72;5113376;27;20044;-61
2022/03/03 04:56:38;;;;;;;189.13;151.52;;;;;;;14.29;26.13;93651.09;5113306;27;20693;-62
2022/03/03 04:59:05;;;;;;;186.32;150.02;;;;;;;14.28;26.08;93641.53;5109978;27;20166;-61
2022/03/03 05:01:31;;;;;;;185.27;148.98;;;;;;;14.29;26.27;93645.72;5113841;27;20440;-61
2022/03/03 05:03:56;;;;;;;188.02;151.35;;;;;;;14.29;26.05;93644.97;5109433;27;20043;-62
2022/03/03 05:06:22;;;;;;;190.10;152.52;;;;;;;14.28;26.04;93644.22;5117309;28;20556;-62
2022/03/03 05:08:48;;;;;;;203.52;162.57;;;;;;;14.29;26.08;93644.97;5091202;28;20051;-62
2022/03/03 05:11:14;;;;;;;190.00;152.25;;;;;;;14.30;25.85;93647.19;5115253;28;20053;-62
2022/03/03 05:13:39;;;;;;;207.40;164.98;;;;;;;14.29;26.00;93639.59;5116094;28;20042;-63
2022/03/03 05:16:05;;;;;;;185.82;148.43;;;;;;;14.31;26.07;93645.25;5102775;28;20120;-61
2022/03/03 05:18:31;;;;;;;209.68;167.63;;;;;;;14.30;25.85;93641.81;5107469;28;20119;-63
2022/03/03 05:20:57;;;;;;;207.93;164.75;;;;;;;14.30;26.12;93641.81;5078380;28;20067;-63
2022/03/03 05:23:23;;;;;;;207.73;165.60;;;;;;;14.33;25.80;93645.56;5088521;28;20559;-64
2022/03/03 05:25:49;;;;;;;192.90;154.70;;;;;;;14.33;26.03;93640.94;5105616;28;20046;-62
2022/03/03 05:28:15;;;;;;;203.20;162.20;;;;;;;14.31;25.99;93634.50;5101895;28;20036;-65
2022/03/03 05:30:41;;;;;;;185.75;148.77;;;;;;;14.35;25.84;93630.50;5114502;28;20047;-62
2022/03/03 05:33:07;;;;;;;184.80;148.85;;;;;;;14.35;25.93;93635.88;5096166;28;20035;-62
2022/03/03 05:35:32;;;;;;;181.00;144.68;;;;;;;14.35;25.84;93635.13;5118113;28;20031;-62
2022/03/03 05:37:58;;;;;;;187.32;150.77;;;;;;;14.35;25.77;93640.50;5109904;28;20512;-62
2022/03/03 05:40:24;;;;;;;184.27;147.60;;;;;;;14.35;25.83;93640.50;5109554;28;20125;-61
2022/03/03 05:42:50;;;;;;;187.80;150.38;;;;;;;14.36;25.92;93647.38;5112455;27;20512;-62
2022/03/03 05:45:15;;;;;;;213.13;169.95;;;;;;;14.36;25.70;93634.69;5109534;28;20031;-61
2022/03/03 05:47:41;;;;;;;184.07;147.32;;;;;;;14.37;25.60;93633.50;5122033;28;20070;-62
2022/03/03 05:50:09;;;;;;;197.85;157.88;;;;;;;14.38;25.68;93628.88;5108080;28;20035;-62
2022/03/03 05:52:34;;;;;;;197.07;157.05;;;;;;;14.39;25.70;93639.19;5104993;27;20519;-62
2022/03/03 05:55:00;;;;;;;180.93;144.98;;;;;;;14.35;25.72;93632.44;5092826;28;20047;-63
2022/03/03 05:57:32;;;;;;;185.95;149.27;;;;;;;14.34;25.60;93644.38;5115283;28;20122;-61
2022/03/03 06:03:39;;;;;;;188.13;149.07;;;;;;;14.32;25.63;93655.59;5108726;28;20050;-61
2022/03/03 06:06:14;;;;;;;183.90;147.05;;;;;;;14.36;25.72;93647.38;5121263;27;20049;-63
2022/03/03 06:08:48;;;;;;;182.73;146.52;;;;;;;14.35;25.72;93643.19;5120171;27;20036;-63
2022/03/03 06:11:17;;;;;;;180.40;143.80;;;;;;;14.36;25.82;93640.06;5109350;27;20044;-61
2022/03/03 06:13:46;;;;;;;188.88;150.63;;;;;;;14.41;25.67;93644.91;5097970;27;20169;-62
2022/03/03 06:16:15;;;;;;;;;;;;;;;14.41;25.75;93638.75;5122892;27;20038;-62
2022/03/03 06:18:46;;;;;;;184.90;144.63;;;;;;;14.44;25.83;93646.72;5118009;27;19919;-61
2022/03/03 06:21:11;;;;;;;186.65;148.15;;;;;;;14.44;25.69;93645.97;5097433;27;20043;-61
2022/03/03 06:23:36;;;;;;;189.82;151.15;;;;;;;14.45;25.81;93634.78;5108373;27;20058;-64
2022/03/03 06:26:11;;;;;;;201.75;161.70;;;;;;;14.44;25.74;93635.97;5115610;27;20063;-64
2022/03/03 06:28:37;;;;;;;185.85;149.73;;;;;;;14.45;25.60;93632.09;5097241;27;20042;-63
2022/03/03 06:31:06;;;;;;;179.07;142.93;;;;;;;14.45;25.65;93634.78;5126442;27;20039;-62
2022/03/03 06:33:33;;;;;;;187.73;150.30;;;;;;;14.46;25.72;93630.16;5128688;27;20134;-63
2022/03/03 06:35:59;;;;;;;179.32;144.50;;;;;;;14.47;25.62;93635.09;5129519;27;20329;-63
2022/03/03 06:38:25;;;;;;;178.98;145.45;;;;;;;14.47;25.75;93628.97;5112295;27;20054;-62
2022/03/03 06:40:53;;;;;;;182.98;146.98;;;;;;;14.47;25.68;93623.56;5089978;28;20040;-64
2022/03/03 06:43:18;;;;;;;188.55;152.05;;;;;;;14.49;25.57;93619.25;5116805;27;20039;-62
2022/03/03 06:45:44;;;;;;;186.32;149.82;;;;;;;14.50;25.73;93617.31;5111661;27;20066;-62
2022/03/03 06:48:10;;;;;;;187.55;149.98;;;;;;;14.49;25.59;93619.25;5107305;27;20444;-62
2022/03/03 06:50:39;;;;;;;184.13;148.10;;;;;;;14.50;25.66;93620.00;5127830;27;20039;-63
2022/03/03 06:53:09;;;;;;;184.00;147.13;;;;;;;14.53;25.86;93613.75;5124721;27;20042;-62
2022/03/03 06:55:36;;;;;;;183.52;147.43;;;;;;;14.53;25.71;93613.75;5090873;28;20067;-62
2022/03/03 06:58:03;;;;;;;185.18;149.30;;;;;;;14.53;25.78;93602.97;5115441;27;20194;-61
2022/03/03 07:00:34;;;;;;;183.82;148.95;;;;;;;14.54;25.71;93607.16;5121640;27;20039;-61
2022/03/03 07:03:04;;;;;;;185.07;149.50;;;;;;;14.53;25.57;93613.00;5101329;28;20051;-60
2022/03/03 07:05:30;;;;;;;186.20;150.40;;;;;;;14.50;25.65;93604.63;5128377;27;20491;-60
2022/03/03 07:07:57;;;;;;;187.90;150.70;;;;;;;14.55;25.65;93613.31;5117063;27;20110;-61
2022/03/03 07:10:24;;;;;;;184.68;148.63;;;;;;;14.54;25.70;93603.72;5099469;27;20666;-61
2022/03/03 07:12:54;;;;;;;181.35;146.02;;;;;;;14.55;25.58;93597.16;5117494;27;20035;-60
2022/03/03 07:15:21;;;;;;;183.68;148.50;;;;;;;14.56;25.89;93590.59;5105236;27;20396;-60
2022/03/03 07:17:51;;;;;;;182.80;148.35;;;;;;;14.56;25.84;93587.91;5108692;27;20069;-60
2022/03/03 07:20:35;;;;;;;196.32;158.52;;;;;;;14.56;25.86;93591.34;5115211;27;20054;-60
2022/03/03 07:23:07;;;;;;;188.95;150.63;;;;;;;14.58;25.77;93594.34;5117318;27;20035;-60
2022/03/03 07:25:43;;;;;;;181.82;147.02;;;;;;;14.58;25.81;93588.97;5114103;27;20031;-61
2022/03/03 07:28:10;;;;;;;193.50;154.20;;;;;;;14.56;25.79;93585.22;5097866;28;20079;-61
2022/03/03 07:30:43;;;;;;;190.70;153.55;;;;;;;14.57;25.71;93592.84;5115015;27;20032;-62
2022/03/03 07:33:32;;;;;;;183.57;147.15;;;;;;;14.59;25.77;93589.72;5124209;27;20047;-60
2022/03/03 07:36:00;;;;;;;186.95;149.50;;;;;;;14.57;25.83;93582.06;5108476;27;20055;-60
2022/03/03 07:38:34;;;;;;;184.55;149.30;;;;;;;14.56;25.75;93588.66;5117850;27;20150;-61
2022/03/03 07:41:01;;;;;;;178.18;143.15;;;;;;;14.58;25.81;93586.28;5111347;27;20051;-61
2022/03/03 07:43:27;;;;;;;187.88;150.60;;;;;;;14.56;25.62;93577.88;5121942;27;20038;-59
2022/03/03 07:45:52;;;;;;;184.82;149.15;;;;;;;14.57;25.88;93579.38;5109668;27;20036;-60
2022/03/03 07:48:39;;;;;;;193.88;156.00;;;;;;;14.57;25.77;93582.06;5108796;27;20411;-60
2022/03/03 07:51:05;;;;;;;184.57;148.63;;;;;;;14.58;25.68;93577.44;5116042;27;20058;-60
2022/03/03 07:53:31;;;;;;;182.77;148.65;;;;;;;14.57;25.78;93574.00;5091477;28;20640;-61
2022/03/03 07:56:02;;;;;;;185.70;148.88;;;;;;;14.58;25.91;93564.75;5108779;27;20032;-61
2022/03/03 07:58:31;;;;;;;184.05;147.27;;;;;;;14.58;25.70;93562.06;5113194;27;20068;-60
2022/03/03 08:00:59;;;;;;;183.93;149.63;;;;;;;14.57;25.92;93567.88;5108145;27;20039;-61
2022/03/03 08:03:25;;;;;;;186.13;151.68;;;;;;;14.55;25.83;93557.56;5094808;28;20052;-61
2022/03/03 08:05:57;;;;;;;183.85;148.73;;;;;;;14.58;25.83;93559.34;5115284;27;20035;-59
2022/03/03 08:08:30;;;;;;;186.32;150.07;;;;;;;14.59;25.97;93560.09;5122818;27;20039;-59
2022/03/03 08:11:04;;;;;;;185.63;149.63;;;;;;;14.60;26.07;93553.53;5106803;27;20047;-60
2022/03/03 08:13:30;;;;;;;187.23;151.45;;;;;;;14.58;25.89;93545.16;5107543;27;20120;-61
2022/03/03 08:15:57;;;;;;;184.75;148.73;;;;;;;14.58;25.91;93545.91;5103386;27;20118;-61
2022/03/03 08:18:31;;;;;;;181.73;147.35;;;;;;;14.61;25.89;93541.56;5119997;27;20043;-60
2022/03/03 08:21:00;;;;;;;193.65;155.68;;;;;;;14.56;25.97;93542.91;5093676;27;20349;-60
2022/03/03 08:23:26;;;;;;;185.32;149.55;;;;;;;14.58;26.04;93537.84;5110926;27;21846;-63
2022/03/03 08:25:54;;;;;;;208.63;166.07;;;;;;;14.59;25.95;93536.63;5111979;27;20535;-60
2022/03/03 08:28:23;;;;;;;186.55;150.43;;;;;;;14.60;26.01;93537.38;5108441;27;20039;-61
2022/03/03 08:30:55;;;;;;;186.45;148.98;;;;;;;14.61;26.00;93541.56;5111223;27;20050;-61
2022/03/03 08:33:34;;;;;;;182.93;147.32;;;;;;;14.57;25.75;93539.03;5113964;27;20041;-60
2022/03/03 08:36:02;;;;;;;193.50;155.55;;;;;;;14.61;25.87;93539.63;5110275;27;20172;-61
2022/03/03 08:38:35;;;;;;;181.75;148.18;;;;;;;14.61;25.81;93547.72;5124237;27;20047;-61
2022/03/03 08:41:03;;;;;;;184.80;149.13;;;;;;;14.62;26.03;93553.84;5124879;27;20051;-61
2022/03/03 08:43:31;;;;;;;183.98;149.35;;;;;;;14.61;26.05;93558.47;5112299;27;20043;-62
2022/03/03 08:46:02;;;;;;;184.45;148.75;;;;;;;14.63;25.87;93560.72;5114781;27;20039;-62
2022/03/03 08:48:31;;;;;;;183.18;147.07;;;;;;;14.62;26.11;93554.59;5120490;27;20432;-63
2022/03/03 08:50:59;;;;;;;186.75;151.32;;;;;;;14.63;26.11;93560.72;5122562;27;20045;-62
2022/03/03 08:53:24;;;;;;;182.73;147.68;;;;;;;14.64;26.02;93564.91;5114484;27;20050;-60
2022/03/03 08:55:53;;;;;;;183.45;149.57;;;;;;;14.63;25.89;93566.09;5090600;27;20047;-60
2022/03/03 08:58:20;;;;;;;186.02;150.88;;;;;;;14.64;26.09;93562.97;5089563;28;20032;-59
2022/03/03 09:00:48;;;;;;;185.23;148.00;;;;;;;14.64;25.73;93560.28;5094904;28;20376;-60
2022/03/03 09:03:15;;;;;;;191.70;153.93;;;;;;;14.64;26.04;93556.84;5104191;27;20461;-59
2022/03/03 09:05:41;;;;;;;185.55;149.52;;;;;;;14.62;26.15;93562.66;5119546;27;20041;-59
2022/03/03 09:08:07;;;;;;;184.88;148.77;;;;;;;14.61;26.15;93560.41;5113552;28;20046;-59
2022/03/03 09:10:33;;;;;;;188.32;152.98;;;;;;;14.62;26.03;93551.91;5117341;28;20031;-58
2022/03/03 09:13:00;;;;;;;184.25;149.13;;;;;;;14.64;25.88;93546.06;5117104;28;20165;-61
2022/03/03 09:15:30;;;;;;;191.57;155.68;;;;;;;14.63;25.89;93547.28;5113458;28;20040;-60
2022/03/03 09:17:56;;;;;;;183.85;149.70;;;;;;;14.57;25.95;93530.19;5115547;27;20490;-60
2022/03/03 09:20:21;;;;;;;187.52;152.30;;;;;;;14.56;26.03;93526.00;5112932;28;20096;-60
2022/03/03 09:22:47;;;;;;;183.70;148.93;;;;;;;14.56;25.83;93528.69;5119618;27;20049;-61
2022/03/03 09:25:12;;;;;;;180.65;147.63;;;;;;;14.59;25.95;93530.50;5101302;28;20551;-59
2022/03/03 09:27:38;;;;;;;190.30;153.80;;;;;;;14.61;25.77;93526.19;5113852;28;20467;-61
2022/03/03 09:30:06;;;;;;;200.68;161.95;;;;;;;14.64;25.88;93517.22;5120103;28;20045;-60
2022/03/03 09:32:31;;;;;;;186.13;149.23;;;;;;;14.63;25.84;93520.34;5112951;28;20067;-60
2022/03/03 09:34:57;;;;;;;184.00;148.65;;;;;;;14.62;26.09;93522.31;5091408;28;20123;-61
2022/03/03 09:37:23;;;;;;;180.93;146.65;;;;;;;14.65;25.93;93526.03;5119141;27;20126;-60
2022/03/03 09:39:50;;;;;;;186.57;151.82;;;;;;;14.62;26.16;93513.47;5113020;27;20783;-60
2022/03/03 09:42:16;;;;;;;190.77;152.68;;;;;;;14.65;26.12;93520.66;5124677;27;20039;-59
2022/03/03 09:44:43;;;;;;;186.90;150.85;;;;;;;14.63;26.24;93514.97;5101885;27;20046;-60
2022/03/03 09:47:11;;;;;;;179.93;146.80;;;;;;;14.62;26.09;93506.16;5115987;27;20091;-61
2022/03/03 09:49:38;;;;;;;185.40;151.43;;;;;;;14.66;26.01;93509.47;5119635;27;20039;-61
2022/03/03 09:52:15;;;;;;;184.52;149.45;;;;;;;14.64;26.16;93501.06;5128544;27;20042;-59
2022/03/03 09:54:48;;;;;;;184.23;149.40;;;;;;;14.65;26.03;93499.88;5108940;27;20032;-60
2022/03/03 09:57:15;;;;;;;189.50;152.95;;;;;;;14.66;26.10;93504.06;5115640;27;20536;-58
2022/03/03 09:59:42;;;;;;;183.48;147.65;;;;;;;14.66;25.96;93500.63;5118487;27;20486;-61
2022/03/03 10:02:07;;;;;;;184.25;149.57;;;;;;;14.68;26.15;93500.94;5113525;27;20035;-61
2022/03/03 10:04:34;;;;;;;184.73;150.68;;;;;;;14.65;26.02;93504.50;5112443;27;20502;-59
2022/03/03 10:07:07;;;;;;;183.90;148.98;;;;;;;14.65;26.04;93497.19;5120167;27;20145;-61
2022/03/03 10:12:19;;;;;;;190.20;154.38;;;;;;;14.62;26.07;93494.63;5122734;27;20039;-59
2022/03/03 10:14:48;;;;;;;192.63;152.77;;;;;;;14.65;26.15;93499.13;5121542;27;20043;-60
2022/03/03 10:17:14;;;;;;;194.60;155.63;;;;;;;14.64;26.09;93498.38;5125839;27;20040;-60
2022/03/03 10:19:54;;;;;;;197.05;158.38;;;;;;;14.65;25.92;93496.44;5125164;27;20069;-61
2022/03/03 10:22:39;;;;;;;;;;;;;;;14.67;26.16;93504.81;5120514;27;20038;-60
2022/03/03 10:25:06;;;;;;;184.38;145.35;;;;;;;14.65;26.02;93502.56;5120072;27;20587;-59
2022/03/03 10:27:33;;;;;;;206.68;164.93;;;;;;;14.67;26.02;93502.88;5121145;27;20039;-61
2022/03/03 10:29:59;;;;;;;194.23;154.63;;;;;;;14.68;25.88;93506.31;5119238;27;20675;-60
2022/03/03 10:32:25;;;;;;;184.43;149.18;;;;;;;14.68;25.88;93507.06;5091574;27;20094;-60
2022/03/03 10:34:53;;;;;;;185.35;150.93;;;;;;;14.67;26.02;93508.25;5109088;28;20043;-61
2022/03/03 10:37:23;;;;;;;194.88;156.95;;;;;;;14.69;26.13;93507.81;5100618;27;20113;-59
2022/03/03 10:40:00;;;;;;;186.15;151.15;;;;;;;14.69;26.13;93507.81;5115226;27;20047;-59
2022/03/03 10:42:26;;;;;;;186.55;149.77;;;;;;;14.70;25.98;93501.25;5116042;27;20383;-59
2022/03/03 10:45:07;;;;;;;195.65;157.73;;;;;;;14.70;26.19;93506.63;5114659;27;20507;-61
2022/03/03 10:47:33;;;;;;;194.00;155.93;;;;;;;14.70;25.95;93506.63;5122777;27;20047;-61
2022/03/03 10:49:59;;;;;;;194.38;157.10;;;;;;;14.70;26.15;93507.38;5109012;27;20133;-61
2022/03/03 10:52:27;;;;;;;194.07;156.40;;;;;;;14.71;26.19;93502.75;5114172;27;20047;-63
2022/03/03 10:55:02;;;;;;;195.15;159.63;;;;;;;14.69;26.31;93505.13;5113826;27;20114;-61
2022/03/03 10:57:29;;;;;;;196.25;160.18;;;;;;;14.73;26.30;93500.34;5121747;27;20517;-60
2022/03/03 11:00:00;;;;;;;194.85;159.23;;;;;;;14.73;26.59;93503.81;5116352;27;20037;-60
2022/03/03 11:02:29;;;;;;;188.75;154.05;;;;;;;14.67;26.21;93494.81;5119038;27;20180;-59
2022/03/03 11:04:58;;;;;;;185.27;150.57;;;;;;;14.70;26.01;93502.00;5112516;27;20058;-62
2022/03/03 11:07:24;;;;;;;187.85;152.68;;;;;;;14.69;26.26;93507.81;5112639;27;20448;-61
2022/03/03 11:09:50;;;;;;;187.93;153.13;;;;;;;14.73;26.33;93505.75;5105395;27;20038;-61
2022/03/03 11:12:19;;;;;;;191.80;155.35;;;;;;;14.72;26.23;93493.47;5104808;28;20419;-61